Terminal Aerodrome Forecast
Issued by NWS

Home | Current Version | Previous Version | Text Only | Print | Product List | Glossary On
Versions: 1 2 3 4 5 6 7 8 9 10 11 12 13
176
FTUS45 KFGZ 111133
TAFPRC
TAF
KPRC 111133Z 1112/1212 VRB05KT P6SM SCT100 OVC200
     FM111500 VRB05KT P6SM SCT040 BKN120 OVC200=

USA.gov is the U.S. government's official web portal to all federal, state and local government web resources and services.